Time;durP1;ratioP1;P1;durP2;ratioP2;P2;SDS_P1;SDS_P2;PMS_P1;PMS_P2;Temp;Humidity;BMP_temperature;BMP_pressure;BME280_temperature;BME280_humidity;BME280_pressure;Samples;Min_cycle;Max_cycle;Signal;HPM_P1;HPM_P2
2022/10/10 00:00:50;;;;;;;6.75;2.35;;;10.60;99.90;;;;;;4980785;28;20171;-69
2022/10/10 00:03:17;;;;;;;5.95;2.00;;;10.60;99.90;;;;;;4981285;28;20089;-69
2022/10/10 00:05:43;;;;;;;5.50;2.38;;;10.60;99.90;;;;;;4977311;28;20066;-69
2022/10/10 00:08:09;;;;;;;3.35;2.03;;;10.50;99.90;;;;;;4985395;28;20037;-69
2022/10/10 00:10:35;;;;;;;8.23;2.00;;;10.50;99.90;;;;;;4976063;28;20035;-69
2022/10/10 00:13:01;;;;;;;2.67;1.80;;;10.50;99.90;;;;;;4978704;28;20046;-69
2022/10/10 00:15:27;;;;;;;6.65;1.85;;;10.50;99.90;;;;;;4984693;28;20069;-69
2022/10/10 00:17:52;;;;;;;4.82;1.77;;;10.50;99.90;;;;;;4976204;28;20034;-70
2022/10/10 00:20:19;;;;;;;3.95;2.03;;;10.50;99.90;;;;;;4970993;28;20074;-69
2022/10/10 00:22:45;;;;;;;3.80;1.83;;;10.50;99.90;;;;;;4978961;28;20122;-69
2022/10/10 00:25:11;;;;;;;9.75;2.17;;;10.50;99.90;;;;;;4980671;28;20050;-70
2022/10/10 00:27:37;;;;;;;3.50;1.75;;;10.50;99.90;;;;;;4986959;28;20902;-69
2022/10/10 00:30:06;;;;;;;4.95;2.50;;;10.50;99.90;;;;;;4976397;28;20518;-70
2022/10/10 00:32:32;;;;;;;4.63;2.35;;;10.50;99.90;;;;;;4979659;28;20038;-68
2022/10/10 00:34:57;;;;;;;6.70;2.22;;;10.50;99.90;;;;;;4972214;28;20053;-69
2022/10/10 00:37:23;;;;;;;4.28;1.90;;;10.40;99.90;;;;;;4976268;28;20150;-69
2022/10/10 00:39:49;;;;;;;5.07;1.90;;;10.40;99.90;;;;;;4984265;28;20065;-70
2022/10/10 00:42:16;;;;;;;5.82;2.40;;;10.50;99.90;;;;;;4979667;28;20031;-69
2022/10/10 00:44:44;;;;;;;7.03;2.15;;;10.40;99.90;;;;;;4968747;28;20488;-69
2022/10/10 00:47:11;;;;;;;4.68;1.98;;;10.40;99.90;;;;;;4977409;28;20080;-69
2022/10/10 00:49:40;;;;;;;3.17;1.80;;;10.40;99.90;;;;;;4977888;28;20125;-70
2022/10/10 00:52:08;;;;;;;4.43;2.38;;;10.40;99.90;;;;;;4975368;28;20042;-70
2022/10/10 00:54:35;;;;;;;3.85;2.00;;;10.40;99.90;;;;;;4980415;28;20058;-70
2022/10/10 00:57:09;;;;;;;4.57;1.80;;;10.40;99.90;;;;;;4979261;28;20031;-68
2022/10/10 00:59:37;;;;;;;3.25;1.55;;;10.40;99.90;;;;;;4977197;28;20027;-71
2022/10/10 01:02:03;;;;;;;5.32;1.55;;;10.40;99.90;;;;;;4982796;28;20038;-69
2022/10/10 01:04:39;;;;;;;5.50;2.50;;;10.40;99.90;;;;;;4984802;28;20043;-69
2022/10/10 01:07:10;;;;;;;5.20;1.48;;;10.40;99.90;;;;;;4980978;28;20082;-70
2022/10/10 01:09:39;;;;;;;7.22;2.13;;;10.40;99.90;;;;;;4987064;28;20045;-69
2022/10/10 01:12:29;;;;;;;5.43;1.85;;;10.40;99.90;;;;;;4967755;28;20583;-69
2022/10/10 01:14:55;;;;;;;6.93;1.85;;;10.40;99.90;;;;;;4977657;28;20503;-69
2022/10/10 01:17:51;;;;;;;6.32;2.50;;;10.40;99.90;;;;;;4980223;28;20027;-69
2022/10/10 01:20:40;;;;;;;5.40;1.83;;;10.30;99.90;;;;;;4981581;28;20434;-68
2022/10/10 01:23:09;;;;;;;16.45;1.77;;;10.40;99.90;;;;;;4983124;28;20026;-69
2022/10/10 01:25:37;;;;;;;6.95;1.65;;;10.30;99.90;;;;;;4980264;28;20026;-70
2022/10/10 01:28:35;;;;;;;4.63;1.50;;;10.30;99.90;;;;;;4977833;28;20042;-69
2022/10/10 01:31:04;;;;;;;6.85;1.80;;;10.30;99.90;;;;;;4961972;28;20716;-68
2022/10/10 01:34:07;;;;;;;5.45;2.20;;;10.30;99.90;;;;;;4981221;28;20038;-69
2022/10/10 01:36:43;;;;;;;6.00;2.38;;;10.30;99.90;;;;;;4983499;28;20065;-69
2022/10/10 01:39:29;;;;;;;6.97;2.15;;;10.30;99.90;;;;;;4984379;28;20039;-70
2022/10/10 01:42:14;;;;;;;5.43;1.50;;;10.30;99.90;;;;;;4982187;28;20064;-69
2022/10/10 01:44:44;;;;;;;5.22;1.73;;;10.30;99.90;;;;;;4976142;28;20035;-68
2022/10/10 01:47:11;;;;;;;4.20;1.92;;;10.30;99.90;;;;;;4980737;28;20038;-70
2022/10/10 01:49:38;;;;;;;6.35;2.03;;;10.30;99.90;;;;;;4979436;28;20069;-68
2022/10/10 01:52:31;;;;;;;5.82;1.90;;;10.30;99.90;;;;;;4982479;28;20045;-68
2022/10/10 01:55:07;;;;;;;7.35;2.78;;;10.30;99.90;;;;;;4985799;28;20076;-68
2022/10/10 01:57:49;;;;;;;6.03;1.80;;;10.20;99.90;;;;;;4971884;28;20027;-69
2022/10/10 02:00:17;;;;;;;2.38;1.48;;;10.20;99.90;;;;;;4982352;28;20069;-69
2022/10/10 02:02:58;;;;;;;4.15;1.77;;;10.20;99.90;;;;;;4979772;28;20042;-69
2022/10/10 02:05:38;;;;;;;3.00;1.58;;;10.20;99.90;;;;;;4979369;28;20491;-69
2022/10/10 02:08:24;;;;;;;5.07;2.05;;;10.20;99.90;;;;;;4982067;28;20037;-69
2022/10/10 02:10:53;;;;;;;8.82;2.50;;;10.20;99.90;;;;;;4948278;28;20035;-69
2022/10/10 02:13:22;;;;;;;3.90;1.70;;;10.20;99.90;;;;;;4984178;28;20026;-69
2022/10/10 02:15:52;;;;;;;2.88;1.77;;;10.20;99.90;;;;;;4980472;28;20098;-70
2022/10/10 02:18:21;;;;;;;3.70;1.60;;;10.20;99.90;;;;;;4975046;28;20035;-69
2022/10/10 02:20:49;;;;;;;3.72;1.52;;;10.20;99.90;;;;;;4981832;28;20522;-68
2022/10/10 02:23:18;;;;;;;4.20;1.52;;;10.10;99.90;;;;;;4984081;28;20083;-69
2022/10/10 02:25:50;;;;;;;10.45;3.20;;;10.10;99.90;;;;;;4977338;28;20058;-69
2022/10/10 02:28:22;;;;;;;5.40;1.83;;;10.10;99.90;;;;;;4975857;28;20109;-69
2022/10/10 02:30:51;;;;;;;6.05;1.77;;;10.10;99.90;;;;;;4981842;28;20034;-69
2022/10/10 02:33:27;;;;;;;4.00;2.30;;;10.10;99.90;;;;;;4981636;28;20050;-69
2022/10/10 02:35:53;;;;;;;2.92;1.70;;;10.10;99.90;;;;;;4978526;28;20038;-69
2022/10/10 02:38:19;;;;;;;4.22;1.67;;;10.10;99.90;;;;;;4980906;28;20699;-69
2022/10/10 02:40:47;;;;;;;7.03;1.85;;;10.10;99.90;;;;;;4979720;28;20042;-69
2022/10/10 02:43:15;;;;;;;5.88;1.75;;;10.10;99.90;;;;;;4977632;28;20604;-68
2022/10/10 02:45:41;;;;;;;2.45;1.45;;;10.10;99.90;;;;;;4982894;28;20026;-69
2022/10/10 02:48:08;;;;;;;2.78;1.70;;;10.10;99.90;;;;;;4978657;28;20825;-69
2022/10/10 02:50:33;;;;;;;4.63;2.22;;;10.10;99.90;;;;;;4976495;28;20574;-69
2022/10/10 02:52:59;;;;;;;3.53;1.50;;;10.10;99.90;;;;;;4980263;28;20117;-69
2022/10/10 02:55:26;;;;;;;4.13;1.65;;;10.10;99.90;;;;;;4975395;28;20518;-69
2022/10/10 02:57:52;;;;;;;7.72;2.10;;;10.10;99.90;;;;;;4982057;28;20104;-68
2022/10/10 03:00:18;;;;;;;3.47;1.40;;;10.10;99.90;;;;;;4980520;28;20030;-70
2022/10/10 03:02:45;;;;;;;6.57;1.80;;;10.10;99.90;;;;;;4979813;28;20030;-69
2022/10/10 03:05:11;;;;;;;6.82;2.70;;;10.10;99.90;;;;;;4984598;28;20062;-69
2022/10/10 03:07:37;;;;;;;6.18;1.90;;;10.10;99.90;;;;;;4977766;28;20034;-69
2022/10/10 03:10:04;;;;;;;11.38;2.08;;;10.00;99.90;;;;;;4981374;28;20053;-69
2022/10/10 03:12:30;;;;;;;10.60;1.92;;;10.00;99.90;;;;;;4979087;28;20046;-69
2022/10/10 03:14:56;;;;;;;5.53;2.28;;;10.00;99.90;;;;;;4975899;28;20031;-70
2022/10/10 03:17:21;;;;;;;7.03;1.85;;;10.00;99.90;;;;;;4969866;28;20035;-67
2022/10/10 03:19:47;;;;;;;17.80;2.30;;;10.00;99.90;;;;;;4984177;28;20058;-69
2022/10/10 03:22:12;;;;;;;3.88;1.88;;;10.00;99.90;;;;;;4986009;28;20038;-69
2022/10/10 03:24:38;;;;;;;3.38;1.80;;;9.90;99.90;;;;;;4972798;28;20051;-69
2022/10/10 03:27:03;;;;;;;7.03;2.13;;;9.90;99.90;;;;;;4988067;28;20042;-69
2022/10/10 03:29:29;;;;;;;3.42;1.70;;;9.90;99.90;;;;;;4979464;28;20030;-69
2022/10/10 03:31:55;;;;;;;4.43;2.00;;;9.90;99.90;;;;;;4973718;28;20027;-70
2022/10/10 03:34:20;;;;;;;4.47;1.67;;;9.80;99.90;;;;;;4979176;28;20125;-68
2022/10/10 03:36:46;;;;;;;5.43;2.28;;;9.80;99.90;;;;;;4982902;28;20035;-68
2022/10/10 03:39:12;;;;;;;5.80;2.05;;;9.90;99.90;;;;;;4975203;28;20059;-68
2022/10/10 03:41:37;;;;;;;12.02;2.33;;;9.80;99.90;;;;;;4972512;28;20031;-69
2022/10/10 03:44:03;;;;;;;4.03;2.58;;;9.80;99.90;;;;;;4980875;28;20042;-69
2022/10/10 03:46:28;;;;;;;7.25;2.30;;;9.80;99.90;;;;;;4985108;28;20483;-68
2022/10/10 03:48:54;;;;;;;4.55;2.05;;;9.70;99.90;;;;;;4985497;28;20039;-69
2022/10/10 03:51:19;;;;;;;4.72;1.80;;;9.70;99.90;;;;;;4977000;28;20038;-69
2022/10/10 03:53:45;;;;;;;4.60;2.10;;;9.70;99.90;;;;;;4976991;28;20075;-69
2022/10/10 03:56:11;;;;;;;3.78;1.83;;;9.70;99.90;;;;;;4975857;28;20070;-69
2022/10/10 03:58:36;;;;;;;7.78;1.98;;;9.70;99.90;;;;;;4979640;28;20491;-69
2022/10/10 04:01:03;;;;;;;4.60;2.00;;;9.70;99.90;;;;;;4978315;28;20034;-70
2022/10/10 04:03:29;;;;;;;5.90;2.50;;;9.70;99.90;;;;;;4984277;28;20042;-69
2022/10/10 04:05:55;;;;;;;5.93;2.20;;;9.60;99.90;;;;;;4979715;28;20041;-69
2022/10/10 04:08:20;;;;;;;4.43;2.10;;;9.60;99.90;;;;;;4972389;28;20038;-69
2022/10/10 04:10:51;;;;;;;3.65;1.85;;;9.60;99.90;;;;;;4973003;28;20060;-68
2022/10/10 04:13:17;;;;;;;;;;;9.60;99.90;;;;;;4982149;28;20042;-69
2022/10/10 04:15:42;;;;;;;9.07;1.98;;;9.50;99.90;;;;;;4982212;28;19923;-69
2022/10/10 04:18:08;;;;;;;7.65;2.80;;;9.50;99.90;;;;;;4978880;28;20088;-70
2022/10/10 04:20:34;;;;;;;7.85;2.53;;;9.50;99.90;;;;;;4976277;28;20491;-70
2022/10/10 04:22:59;;;;;;;5.22;2.10;;;9.50;99.90;;;;;;4978321;28;20073;-70
2022/10/10 04:25:25;;;;;;;9.98;2.72;;;9.50;99.90;;;;;;4980089;28;20034;-70
2022/10/10 04:27:51;;;;;;;5.20;2.20;;;9.50;99.90;;;;;;4980191;28;20034;-70
2022/10/10 04:30:17;;;;;;;5.50;2.35;;;9.50;99.90;;;;;;4975628;28;20042;-70
2022/10/10 04:32:43;;;;;;;5.15;2.25;;;9.40;99.90;;;;;;4979633;28;20069;-74
2022/10/10 04:35:08;;;;;;;3.78;1.88;;;9.50;99.90;;;;;;4980159;28;20071;-70
2022/10/10 04:37:34;;;;;;;5.63;2.10;;;9.50;99.90;;;;;;4978968;28;20054;-70
2022/10/10 04:40:00;;;;;;;5.05;2.40;;;9.40;99.90;;;;;;4975899;28;20440;-70
2022/10/10 04:42:25;;;;;;;5.63;2.00;;;9.40;99.90;;;;;;4979881;28;20384;-70
2022/10/10 04:44:51;;;;;;;6.03;2.17;;;9.40;99.90;;;;;;4976831;28;20553;-70
2022/10/10 04:47:17;;;;;;;6.82;2.22;;;9.40;99.90;;;;;;4980041;28;20081;-71
2022/10/10 04:49:42;;;;;;;8.73;2.08;;;9.40;99.90;;;;;;4976277;28;20499;-71
2022/10/10 04:52:11;;;;;;;5.40;2.30;;;9.40;99.90;;;;;;4977235;28;20039;-70
2022/10/10 04:54:37;;;;;;;5.40;2.47;;;9.40;99.90;;;;;;4977682;28;20035;-70
2022/10/10 04:57:03;;;;;;;7.35;2.25;;;9.40;99.90;;;;;;4974761;28;20132;-70
2022/10/10 04:59:28;;;;;;;9.32;3.13;;;9.40;99.90;;;;;;4977556;28;20027;-70
2022/10/10 05:01:54;;;;;;;3.67;1.83;;;9.40;99.90;;;;;;4978442;28;20031;-70
2022/10/10 05:04:20;;;;;;;6.43;2.10;;;9.40;99.90;;;;;;4984669;28;20046;-70
2022/10/10 05:06:45;;;;;;;6.05;2.22;;;9.40;99.90;;;;;;4985137;28;20037;-71
2022/10/10 05:09:11;;;;;;;6.60;2.17;;;9.30;99.90;;;;;;4977930;28;20038;-70
2022/10/10 05:11:36;;;;;;;5.82;2.13;;;9.30;99.90;;;;;;4978315;28;20371;-71
2022/10/10 05:14:02;;;;;;;4.43;2.38;;;9.30;99.90;;;;;;4978526;28;20026;-70
2022/10/10 05:16:28;;;;;;;6.25;2.28;;;9.30;99.90;;;;;;4978795;28;20053;-70
2022/10/10 05:18:53;;;;;;;13.27;3.17;;;9.30;99.90;;;;;;4969505;28;20090;-70
2022/10/10 05:21:19;;;;;;;6.22;2.30;;;9.20;99.90;;;;;;4975153;28;20038;-70
2022/10/10 05:23:44;;;;;;;10.77;2.05;;;9.20;99.90;;;;;;4973902;28;20039;-70
2022/10/10 05:26:10;;;;;;;7.40;3.13;;;9.20;99.90;;;;;;4976946;28;20053;-69
2022/10/10 05:28:36;;;;;;;7.85;2.30;;;9.20;99.90;;;;;;4971462;28;20062;-69
2022/10/10 05:31:03;;;;;;;7.20;2.30;;;9.20;99.90;;;;;;4973753;28;20053;-70
2022/10/10 05:33:29;;;;;;;5.72;2.58;;;9.20;99.90;;;;;;4970727;28;20054;-70
2022/10/10 05:36:11;;;;;;;4.45;2.10;;;9.10;99.90;;;;;;4970709;28;20073;-70
2022/10/10 05:38:39;;;;;;;4.07;2.20;;;9.20;99.90;;;;;;4979541;28;20041;-69
2022/10/10 05:41:05;;;;;;;4.25;2.33;;;9.10;99.90;;;;;;4976336;28;20454;-68
2022/10/10 05:43:31;;;;;;;7.78;2.38;;;9.10;99.90;;;;;;4973424;28;20042;-69
2022/10/10 05:45:56;;;;;;;5.13;2.30;;;9.10;99.90;;;;;;4976138;28;20376;-69
2022/10/10 05:48:22;;;;;;;4.75;2.38;;;9.10;99.90;;;;;;4976491;28;20042;-70
2022/10/10 05:50:50;;;;;;;9.25;2.72;;;9.10;99.90;;;;;;4974405;28;20037;-69
2022/10/10 05:53:16;;;;;;;8.30;2.22;;;9.10;99.90;;;;;;4970696;28;20454;-69
2022/10/10 05:55:45;;;;;;;6.38;2.67;;;9.00;99.90;;;;;;4975992;28;20049;-69
2022/10/10 05:58:14;;;;;;;4.93;2.10;;;9.10;99.90;;;;;;4975655;28;20402;-70
2022/10/10 06:00:41;;;;;;;5.78;1.95;;;9.10;99.90;;;;;;4971987;28;20045;-70
2022/10/10 06:03:11;;;;;;;5.50;2.05;;;9.10;99.90;;;;;;4980030;28;20086;-69
2022/10/10 06:05:37;;;;;;;12.23;2.33;;;9.00;99.90;;;;;;4976091;28;20097;-69
2022/10/10 06:08:03;;;;;;;8.65;3.20;;;9.00;99.90;;;;;;4971882;28;20027;-68
2022/10/10 06:10:29;;;;;;;10.45;2.92;;;9.00;99.90;;;;;;4975861;28;20399;-68
2022/10/10 06:12:54;;;;;;;7.75;2.20;;;9.00;99.90;;;;;;4976348;28;20049;-70
2022/10/10 06:15:20;;;;;;;3.15;2.22;;;9.00;99.90;;;;;;4975947;28;20124;-68
2022/10/10 06:17:45;;;;;;;3.92;2.30;;;9.00;99.90;;;;;;4973411;28;20051;-69
2022/10/10 06:20:11;;;;;;;4.40;2.33;;;9.00;99.90;;;;;;4979522;28;20117;-69
2022/10/10 06:22:37;;;;;;;11.07;2.50;;;9.00;99.90;;;;;;4977451;28;20042;-68
2022/10/10 06:25:02;;;;;;;8.45;2.50;;;9.10;99.90;;;;;;4972126;28;20034;-69
2022/10/10 06:27:28;;;;;;;6.28;2.47;;;9.00;99.90;;;;;;4974505;28;20047;-69
2022/10/10 06:29:54;;;;;;;9.82;3.03;;;9.00;99.90;;;;;;4976909;28;20742;-69
2022/10/10 06:32:19;;;;;;;5.43;2.63;;;9.00;99.90;;;;;;4970036;28;20038;-69
2022/10/10 06:34:45;;;;;;;6.75;2.45;;;9.10;99.90;;;;;;4973640;28;20402;-70
2022/10/10 06:37:11;;;;;;;3.42;2.00;;;9.10;99.90;;;;;;4976812;28;20562;-68
2022/10/10 06:39:37;;;;;;;7.78;3.72;;;9.10;99.90;;;;;;4976212;28;20045;-68
2022/10/10 06:42:03;;;;;;;5.38;2.90;;;9.20;99.90;;;;;;4972751;28;20037;-68
2022/10/10 06:44:28;;;;;;;6.43;2.15;;;9.30;99.90;;;;;;4979051;28;20045;-69
2022/10/10 06:46:54;;;;;;;14.25;2.90;;;9.40;99.90;;;;;;4975712;28;20029;-69
2022/10/10 06:49:20;;;;;;;7.53;2.55;;;9.40;99.90;;;;;;4973314;28;20035;-69
2022/10/10 06:51:45;;;;;;;6.78;3.08;;;9.50;99.90;;;;;;4978921;28;20105;-70
2022/10/10 06:54:11;;;;;;;6.28;2.45;;;9.60;99.90;;;;;;4975563;28;20033;-68
2022/10/10 06:56:36;;;;;;;6.85;2.70;;;9.60;99.90;;;;;;4974484;28;20113;-70
2022/10/10 06:59:02;;;;;;;14.25;2.40;;;9.60;99.90;;;;;;4976853;28;20031;-69
2022/10/10 07:01:28;;;;;;;8.48;2.33;;;9.70;99.90;;;;;;4977498;28;20049;-70
2022/10/10 07:03:54;;;;;;;6.90;2.65;;;9.70;99.90;;;;;;4973389;28;20030;-68
2022/10/10 07:06:19;;;;;;;7.45;3.17;;;9.80;99.90;;;;;;4974600;28;20038;-69
2022/10/10 07:08:45;;;;;;;5.63;2.30;;;9.80;99.90;;;;;;4973229;28;20066;-70
2022/10/10 07:11:11;;;;;;;8.77;3.08;;;9.90;99.90;;;;;;4973549;28;20048;-69
2022/10/10 07:13:37;;;;;;;11.90;2.28;;;9.90;99.90;;;;;;4971405;28;20900;-69
2022/10/10 07:16:04;;;;;;;7.75;3.17;;;10.00;99.90;;;;;;4974390;28;20137;-69
2022/10/10 07:18:30;;;;;;;5.07;2.20;;;10.10;99.90;;;;;;4975981;28;20399;-69
2022/10/10 07:20:57;;;;;;;5.68;2.05;;;10.20;99.90;;;;;;4969876;28;20035;-69
2022/10/10 07:23:23;;;;;;;6.68;1.90;;;10.20;99.90;;;;;;4970004;28;20054;-69
2022/10/10 07:25:48;;;;;;;6.63;2.30;;;10.40;99.90;;;;;;4968204;28;20034;-69
2022/10/10 07:28:14;;;;;;;8.30;2.72;;;10.40;99.90;;;;;;4972542;28;20053;-69
2022/10/10 07:30:42;;;;;;;7.60;2.17;;;10.50;99.90;;;;;;4968751;28;20060;-69
2022/10/10 07:33:09;;;;;;;10.25;3.03;;;10.50;99.90;;;;;;4976298;28;20390;-70
2022/10/10 07:35:34;;;;;;;6.43;1.98;;;10.60;99.90;;;;;;4973754;28;20392;-69
2022/10/10 07:38:00;;;;;;;5.75;2.17;;;10.70;99.90;;;;;;4972093;28;20041;-68
2022/10/10 07:40:26;;;;;;;6.00;2.35;;;10.80;99.90;;;;;;4976490;28;20050;-70
2022/10/10 07:42:51;;;;;;;5.90;2.53;;;10.80;99.90;;;;;;4977043;28;20039;-69
2022/10/10 07:45:17;;;;;;;6.22;2.30;;;10.90;99.90;;;;;;4973543;28;20569;-69
2022/10/10 07:47:43;;;;;;;9.27;3.65;;;10.90;99.90;;;;;;4976188;28;20432;-68
2022/10/10 07:50:10;;;;;;;8.35;3.28;;;11.00;99.90;;;;;;4972739;28;20054;-68
2022/10/10 07:52:36;;;;;;;5.07;2.85;;;11.10;99.90;;;;;;4970949;28;20113;-68
2022/10/10 07:55:02;;;;;;;11.70;2.45;;;11.20;99.90;;;;;;4973773;28;20443;-69
2022/10/10 07:57:33;;;;;;;8.77;1.92;;;11.30;99.90;;;;;;4977548;28;20074;-69
2022/10/10 08:00:00;;;;;;;;;;;11.50;99.90;;;;;;4976125;28;20110;-68
2022/10/10 08:02:25;;;;;;;9.02;2.67;;;11.70;99.90;;;;;;4972077;28;20394;-70
2022/10/10 08:04:51;;;;;;;8.13;3.00;;;11.80;99.90;;;;;;4976411;28;20061;-69
2022/10/10 08:07:18;;;;;;;7.25;2.17;;;12.00;99.90;;;;;;4976157;28;20113;-69
2022/10/10 08:09:43;;;;;;;6.65;2.17;;;12.20;99.90;;;;;;4975527;28;20038;-69
2022/10/10 08:12:09;;;;;;;5.22;2.20;;;12.40;99.90;;;;;;4974512;28;20035;-69
2022/10/10 08:14:35;;;;;;;7.45;2.45;;;12.60;99.90;;;;;;4975700;28;20030;-69
2022/10/10 08:17:00;;;;;;;8.50;1.95;;;12.80;99.90;;;;;;4973821;28;20046;-70
2022/10/10 08:19:26;;;;;;;9.10;1.98;;;13.10;99.90;;;;;;4972769;28;20042;-70
2022/10/10 08:21:51;;;;;;;6.68;2.60;;;13.20;99.90;;;;;;4976695;28;20042;-69
2022/10/10 08:24:17;;;;;;;6.28;2.22;;;13.30;99.90;;;;;;4976033;28;20487;-71
2022/10/10 08:26:43;;;;;;;7.53;2.63;;;13.40;99.90;;;;;;4971172;28;20057;-69
2022/10/10 08:29:08;;;;;;;5.88;2.22;;;13.50;99.90;;;;;;4973529;28;20060;-69
2022/10/10 08:31:34;;;;;;;7.13;2.15;;;13.50;99.90;;;;;;4973884;28;20035;-69
2022/10/10 08:33:59;;;;;;;6.18;2.22;;;13.50;99.90;;;;;;4971905;28;20507;-70
2022/10/10 08:36:26;;;;;;;7.63;2.00;;;13.50;99.90;;;;;;4974198;28;20046;-69
2022/10/10 08:38:56;;;;;;;5.78;2.40;;;13.40;99.90;;;;;;4977614;28;20049;-70
2022/10/10 08:41:45;;;;;;;5.50;2.10;;;13.40;99.90;;;;;;4972352;28;20145;-70
2022/10/10 08:44:29;;;;;;;5.43;2.20;;;13.30;99.90;;;;;;4967454;28;20042;-69
2022/10/10 08:46:57;;;;;;;12.55;2.70;;;13.30;99.90;;;;;;4971292;28;20027;-70
2022/10/10 08:49:35;;;;;;;6.53;2.63;;;13.20;99.90;;;;;;4969960;28;20085;-69
2022/10/10 08:52:32;;;;;;;5.13;1.83;;;13.20;99.90;;;;;;4972491;28;20386;-69
2022/10/10 08:55:01;;;;;;;7.18;3.15;;;13.20;99.90;;;;;;4969184;28;20076;-70
2022/10/10 08:57:32;;;;;;;4.78;2.08;;;13.20;99.90;;;;;;4975338;28;20491;-69
2022/10/10 09:00:20;;;;;;;5.10;1.90;;;13.20;99.90;;;;;;4972000;28;20027;-68
2022/10/10 09:02:57;;;;;;;7.63;2.42;;;13.20;99.90;;;;;;4971961;28;20771;-70
2022/10/10 09:06:10;;;;;;;5.32;2.03;;;13.20;99.90;;;;;;4969673;28;20038;-72
2022/10/10 09:09:01;;;;;;;6.53;2.22;;;13.20;99.90;;;;;;4952151;28;20038;-70
2022/10/10 09:11:45;;;;;;;5.47;2.15;;;13.20;99.90;;;;;;4973847;28;20086;-70
2022/10/10 09:14:36;;;;;;;4.43;2.08;;;13.20;99.90;;;;;;4974491;28;20062;-69
2022/10/10 09:17:35;;;;;;;5.88;1.95;;;13.30;99.90;;;;;;4971785;28;20045;-69
2022/10/10 09:20:25;;;;;;;6.00;2.70;;;13.30;99.90;;;;;;4977051;28;20168;-69
2022/10/10 09:23:02;;;;;;;11.23;2.40;;;13.30;99.90;;;;;;4968731;28;20499;-70
2022/10/10 09:25:41;;;;;;;7.07;2.30;;;13.30;99.90;;;;;;4969921;28;20584;-69
2022/10/10 09:28:37;;;;;;;3.63;1.83;;;13.40;99.90;;;;;;4969316;28;20122;-69
2022/10/10 09:31:09;;;;;;;6.90;2.42;;;13.40;99.90;;;;;;4971184;28;20115;-69
2022/10/10 09:33:44;;;;;;;8.90;2.20;;;13.50;99.90;;;;;;4970507;28;20034;-70
2022/10/10 09:36:16;;;;;;;7.15;2.38;;;13.50;99.90;;;;;;4967532;28;20074;-70
2022/10/10 09:38:52;;;;;;;10.20;2.00;;;13.60;99.90;;;;;;4974810;28;20037;-69
2022/10/10 09:41:42;;;;;;;8.70;2.40;;;13.60;99.90;;;;;;4968459;28;20043;-70
2022/10/10 09:44:13;;;;;;;6.13;2.67;;;13.70;99.90;;;;;;4973242;28;20607;-69
2022/10/10 09:46:39;;;;;;;7.55;2.78;;;13.80;99.90;;;;;;4971652;28;20281;-70
2022/10/10 09:49:05;;;;;;;11.88;2.47;;;13.90;99.90;;;;;;4976507;28;20047;-70
2022/10/10 09:51:31;;;;;;;7.93;2.05;;;14.00;99.90;;;;;;4975387;28;20038;-69
2022/10/10 09:53:57;;;;;;;4.55;2.05;;;14.10;99.90;;;;;;4973317;28;20026;-69
2022/10/10 09:56:33;;;;;;;7.13;2.33;;;14.10;99.90;;;;;;4972962;28;20510;-70
2022/10/10 09:58:59;;;;;;;7.43;2.10;;;14.20;99.90;;;;;;4979492;28;20037;-69
2022/10/10 10:01:31;;;;;;;8.00;2.30;;;14.30;99.90;;;;;;4976678;28;20454;-69
2022/10/10 10:04:16;;;;;;;9.20;2.55;;;14.30;99.90;;;;;;4973515;28;20041;-70
2022/10/10 10:06:45;;;;;;;7.97;2.67;;;14.40;99.90;;;;;;4970859;28;20042;-69
2022/10/10 10:09:16;;;;;;;8.27;2.53;;;14.50;99.90;;;;;;4980478;28;20036;-69
2022/10/10 10:11:42;;;;;;;9.20;2.47;;;14.50;99.90;;;;;;4971795;28;20088;-70
2022/10/10 10:14:27;;;;;;;10.18;2.97;;;14.60;99.90;;;;;;4969803;28;20082;-69
2022/10/10 10:17:03;;;;;;;4.47;1.80;;;14.70;99.90;;;;;;4974299;28;20034;-70
2022/10/10 10:19:31;;;;;;;6.22;2.70;;;14.70;99.90;;;;;;4978447;28;20568;-69
2022/10/10 10:21:57;;;;;;;4.55;2.08;;;14.90;99.90;;;;;;4968380;28;20061;-71
2022/10/10 10:24:29;;;;;;;8.55;2.65;;;14.90;99.90;;;;;;4969800;28;20499;-69
2022/10/10 10:26:55;;;;;;;7.35;2.33;;;15.00;99.90;;;;;;4970501;28;20125;-71
2022/10/10 10:29:26;;;;;;;9.52;2.30;;;15.10;99.90;;;;;;4973307;28;20114;-69
2022/10/10 10:31:57;;;;;;;5.53;2.53;;;15.10;99.90;;;;;;4968876;28;20511;-70
2022/10/10 10:34:31;;;;;;;4.25;2.00;;;15.00;99.90;;;;;;4971177;28;20118;-71
2022/10/10 10:37:18;;;;;;;7.30;2.78;;;15.00;99.90;;;;;;4976256;28;20533;-70
2022/10/10 10:39:55;;;;;;;9.82;2.10;;;15.00;99.90;;;;;;4973973;28;20035;-70
2022/10/10 10:43:00;;;;;;;12.80;2.42;;;15.00;99.90;;;;;;4972008;28;20081;-70
2022/10/10 10:45:31;;;;;;;9.45;3.78;;;15.00;99.90;;;;;;4972214;28;20037;-71
2022/10/10 10:48:14;;;;;;;15.88;3.22;;;15.00;99.90;;;;;;4973880;28;20330;-70
2022/10/10 10:50:52;;;;;;;8.93;2.35;;;15.30;99.90;;;;;;4972894;28;20039;-70
2022/10/10 10:53:31;;;;;;;6.57;2.70;;;15.40;99.90;;;;;;4970858;28;20043;-70
2022/10/10 10:56:17;;;;;;;9.68;2.60;;;15.40;99.90;;;;;;4975398;28;20138;-71
2022/10/10 10:59:19;;;;;;;8.80;2.00;;;15.50;99.90;;;;;;4970391;28;20070;-70
2022/10/10 11:01:59;;;;;;;5.82;2.00;;;15.50;99.90;;;;;;4974109;28;20034;-70
2022/10/10 11:04:59;;;;;;;8.05;2.42;;;15.50;99.90;;;;;;4974965;28;20037;-70
2022/10/10 11:07:28;;;;;;;4.85;2.33;;;15.50;99.90;;;;;;4972406;28;20054;-70
2022/10/10 11:10:17;;;;;;;9.20;2.25;;;15.60;99.90;;;;;;4970212;28;20030;-70
2022/10/10 11:12:57;;;;;;;8.32;2.33;;;15.70;99.90;;;;;;4967520;28;20038;-70
2022/10/10 11:15:31;;;;;;;6.18;2.10;;;15.70;99.90;;;;;;4973575;28;20113;-70
2022/10/10 11:17:59;;;;;;;4.85;1.63;;;15.60;99.90;;;;;;4976523;28;20491;-70
2022/10/10 11:20:38;;;;;;;7.43;2.80;;;15.50;99.90;;;;;;4977111;28;20043;-70
2022/10/10 11:23:11;;;;;;;7.22;2.60;;;15.50;99.90;;;;;;4969185;28;20039;-71
2022/10/10 11:25:51;;;;;;;8.10;2.58;;;15.50;99.90;;;;;;4973080;28;20039;-70
2022/10/10 11:28:28;;;;;;;5.88;3.15;;;15.50;99.90;;;;;;4975484;28;20534;-69
2022/10/10 11:30:58;;;;;;;5.50;1.67;;;15.50;99.90;;;;;;4968684;28;20042;-71
2022/10/10 11:33:31;;;;;;;6.82;2.42;;;15.50;99.90;;;;;;4975437;28;20050;-69
2022/10/10 11:36:17;;;;;;;9.45;2.70;;;15.50;99.90;;;;;;4973110;28;20113;-70
2022/10/10 11:38:46;;;;;;;6.97;1.90;;;15.50;99.90;;;;;;4973853;28;20042;-69
2022/10/10 11:41:18;;;;;;;9.20;2.15;;;15.50;99.90;;;;;;4971399;28;20026;-70
2022/10/10 11:44:15;;;;;;;6.07;2.20;;;15.40;99.90;;;;;;4971211;28;20035;-70
2022/10/10 11:46:49;;;;;;;6.53;2.80;;;15.30;99.90;;;;;;4973699;28;20801;-71
2022/10/10 11:49:43;;;;;;;6.10;2.65;;;15.30;99.90;;;;;;4977951;28;20554;-71
2022/10/10 11:52:23;;;;;;;6.03;1.90;;;15.20;99.90;;;;;;4969780;28;20133;-70
2022/10/10 11:54:56;;;;;;;9.55;2.42;;;15.20;99.90;;;;;;4969619;28;20153;-69
2022/10/10 11:57:56;;;;;;;4.57;2.72;;;15.20;99.90;;;;;;4973734;28;20030;-70
2022/10/10 12:00:22;;;;;;;;;;;15.10;99.90;;;;;;4974172;28;20046;-70
2022/10/10 12:02:48;;;;;;;14.38;3.97;;;15.10;99.90;;;;;;4976575;28;19967;-69
2022/10/10 12:05:24;;;;;;;8.13;2.70;;;15.10;99.90;;;;;;4971414;28;20053;-70
2022/10/10 12:07:55;;;;;;;5.60;2.25;;;15.10;99.90;;;;;;4970199;28;20034;-70
2022/10/10 12:10:26;;;;;;;8.93;2.22;;;15.00;99.90;;;;;;4968984;28;20030;-70
2022/10/10 12:12:55;;;;;;;9.00;2.75;;;15.00;99.90;;;;;;4972753;28;20033;-71
2022/10/10 12:15:31;;;;;;;9.05;2.17;;;15.00;99.90;;;;;;4972071;28;20042;-70
2022/10/10 12:17:57;;;;;;;9.25;2.20;;;15.10;99.90;;;;;;4973892;28;20085;-70
2022/10/10 12:20:26;;;;;;;10.23;2.40;;;15.00;99.90;;;;;;4975349;28;20130;-71
2022/10/10 12:23:21;;;;;;;3.65;2.10;;;15.00;99.90;;;;;;4968486;28;20089;-70
2022/10/10 12:25:47;;;;;;;7.25;2.33;;;14.90;99.90;;;;;;4966639;28;20499;-71
2022/10/10 12:28:13;;;;;;;9.00;2.65;;;14.90;99.90;;;;;;4968112;28;20043;-70
2022/10/10 12:30:56;;;;;;;9.07;2.83;;;14.80;99.90;;;;;;4971892;28;20114;-71
2022/10/10 12:33:24;;;;;;;10.65;2.88;;;14.80;99.90;;;;;;4971715;28;20065;-70
2022/10/10 12:35:51;;;;;;;13.55;2.42;;;14.80;99.90;;;;;;4972540;28;20407;-70
2022/10/10 12:38:24;;;;;;;10.80;2.10;;;14.80;99.90;;;;;;4975426;28;20038;-70
2022/10/10 12:40:56;;;;;;;6.38;1.73;;;14.80;99.90;;;;;;4969612;28;20039;-69
2022/10/10 12:43:43;;;;;;;7.55;2.70;;;14.80;99.90;;;;;;4968682;28;20490;-71
2022/10/10 12:46:17;;;;;;;7.80;1.77;;;14.80;99.90;;;;;;4970777;28;20454;-69
2022/10/10 12:48:44;;;;;;;4.25;1.17;;;14.70;99.90;;;;;;4974502;28;20035;-70
2022/10/10 12:51:22;;;;;;;5.82;1.30;;;14.60;99.90;;;;;;4975997;28;20182;-69
2022/10/10 12:53:55;;;;;;;3.35;0.93;;;14.60;99.90;;;;;;4972983;28;20039;-70
2022/10/10 12:56:42;;;;;;;7.18;0.98;;;14.60;99.90;;;;;;4975187;28;20043;-69
2022/10/10 12:59:23;;;;;;;1.38;0.50;;;14.60;99.90;;;;;;4977317;28;20567;-70
2022/10/10 13:02:01;;;;;;;7.18;1.25;;;14.60;99.90;;;;;;4975833;28;20066;-70
2022/10/10 13:04:27;;;;;;;3.40;0.40;;;14.50;99.90;;;;;;4975084;28;20117;-70
2022/10/10 13:06:59;;;;;;;1.17;0.22;;;14.50;99.90;;;;;;4975236;28;20038;-70
2022/10/10 13:09:32;;;;;;;0.88;0.30;;;14.60;99.90;;;;;;4979618;28;20042;-70